Time;durP1;ratioP1;P1;durP2;ratioP2;P2;SDS_P1;SDS_P2;PMS_P1;PMS_P2;Temp;Humidity;BMP_temperature;BMP_pressure;BME280_temperature;BME280_humidity;BME280_pressure;Samples;Min_cycle;Max_cycle;Signal;HPM_P1;HPM_P2
2023/06/04 00:00:17;;;;;;;0.85;0.70;;;13.40;99.90;;;;;;7404559;19;19918;-71
2023/06/04 00:02:46;;;;;;;1.05;0.70;;;13.20;99.90;;;;;;7402232;19;20360;-70
2023/06/04 00:05:15;;;;;;;1.50;0.60;;;13.10;99.90;;;;;;7404563;19;20340;-70
2023/06/04 00:07:44;;;;;;;1.48;0.63;;;13.20;99.90;;;;;;7403187;19;19924;-70
2023/06/04 00:10:13;;;;;;;0.47;0.45;;;13.10;99.90;;;;;;7404852;19;19925;-70
2023/06/04 00:12:42;;;;;;;3.22;0.70;;;13.00;99.90;;;;;;7401462;19;19915;-72
2023/06/04 00:15:14;;;;;;;1.90;0.80;;;13.00;99.90;;;;;;7404685;19;19918;-71
2023/06/04 00:17:43;;;;;;;1.35;0.57;;;13.00;99.90;;;;;;7403245;19;19926;-71
2023/06/04 00:20:13;;;;;;;0.50;0.40;;;13.00;99.90;;;;;;7404208;19;19918;-70
2023/06/04 00:22:42;;;;;;;1.40;0.63;;;12.90;99.90;;;;;;7403198;19;19911;-70
2023/06/04 00:25:11;;;;;;;1.63;0.57;;;11.20;99.90;;;;;;7403013;19;19939;-70
2023/06/04 00:27:40;;;;;;;1.80;0.68;;;12.80;99.90;;;;;;7402894;19;19925;-71
2023/06/04 00:30:14;;;;;;;1.65;0.60;;;12.90;99.90;;;;;;7404613;19;19923;-70
2023/06/04 00:32:43;;;;;;;1.88;0.80;;;12.80;99.90;;;;;;7403233;19;20348;-70
2023/06/04 00:35:12;;;;;;;1.00;0.57;;;12.70;99.90;;;;;;7404717;19;19925;-70
2023/06/04 00:37:41;;;;;;;1.38;0.60;;;12.80;99.90;;;;;;7403046;19;19921;-70
2023/06/04 00:40:11;;;;;;;1.55;0.90;;;12.70;99.90;;;;;;7401217;19;19970;-70
2023/06/04 00:42:40;;;;;;;2.88;1.02;;;12.70;99.90;;;;;;7399514;19;19914;-70
2023/06/04 00:45:15;;;;;;;2.22;1.13;;;12.70;99.90;;;;;;7401109;19;20523;-70
2023/06/04 00:47:45;;;;;;;2.10;1.00;;;12.70;99.90;;;;;;7403051;19;19915;-70
2023/06/04 00:50:14;;;;;;;1.65;1.15;;;12.70;99.90;;;;;;7401378;19;20540;-70
2023/06/04 00:52:44;;;;;;;1.95;1.00;;;12.60;99.90;;;;;;7402834;19;20325;-70
2023/06/04 00:55:13;;;;;;;2.42;1.55;;;12.50;99.90;;;;;;7401287;19;20333;-70
2023/06/04 00:57:42;;;;;;;1.85;0.90;;;12.60;99.90;;;;;;7403553;19;19914;-70
2023/06/04 01:00:15;;;;;;;1.33;0.90;;;12.40;99.90;;;;;;7407802;19;19919;-71
2023/06/04 01:02:50;;;;;;;1.00;0.82;;;12.60;99.90;;;;;;7408708;19;19926;-70
2023/06/04 01:05:24;;;;;;;1.92;0.82;;;12.50;99.90;;;;;;7409064;19;20319;-70
2023/06/04 01:07:54;;;;;;;3.97;1.80;;;12.60;99.90;;;;;;7410045;19;19921;-70
2023/06/04 01:10:23;;;;;;;1.67;1.17;;;12.40;99.90;;;;;;7408935;19;19925;-71
2023/06/04 01:12:52;;;;;;;2.17;1.00;;;12.40;99.90;;;;;;7408817;19;19915;-71
2023/06/04 01:15:24;;;;;;;1.70;0.90;;;12.40;99.90;;;;;;7408690;19;19911;-70
2023/06/04 01:17:57;;;;;;;2.08;1.13;;;12.60;99.90;;;;;;7406939;19;19978;-70
2023/06/04 01:20:33;;;;;;;2.28;1.75;;;12.40;99.90;;;;;;7409352;19;20356;-71
2023/06/04 01:23:16;;;;;;;0.93;0.60;;;12.40;99.90;;;;;;7406844;19;20014;-70
2023/06/04 01:25:49;;;;;;;1.92;0.80;;;12.40;99.90;;;;;;7409147;19;19974;-70
2023/06/04 01:28:20;;;;;;;0.90;0.70;;;12.30;99.90;;;;;;7408762;19;19978;-70
2023/06/04 01:30:53;;;;;;;1.10;0.68;;;12.30;99.90;;;;;;7409008;19;19919;-70
2023/06/04 01:33:22;;;;;;;1.58;0.90;;;12.30;99.90;;;;;;7407873;19;19942;-70
2023/06/04 01:35:51;;;;;;;1.17;0.88;;;12.20;99.90;;;;;;7409902;19;19918;-70
2023/06/04 01:38:20;;;;;;;2.05;1.30;;;12.10;99.90;;;;;;7407983;19;19974;-70
2023/06/04 01:40:50;;;;;;;1.85;0.80;;;12.20;99.90;;;;;;7409618;19;19914;-69
2023/06/04 01:43:19;;;;;;;1.15;0.80;;;12.20;99.90;;;;;;7406888;19;19918;-70
2023/06/04 01:45:51;;;;;;;1.73;0.80;;;12.10;99.90;;;;;;7404767;19;19925;-69
2023/06/04 01:48:20;;;;;;;1.50;0.70;;;12.20;99.90;;;;;;7408409;19;20652;-69
2023/06/04 01:50:49;;;;;;;2.03;0.95;;;12.10;99.90;;;;;;7406157;19;19918;-70
2023/06/04 01:53:18;;;;;;;0.98;0.50;;;12.00;99.90;;;;;;7407648;19;19986;-69
2023/06/04 01:55:49;;;;;;;1.60;0.60;;;12.10;99.90;;;;;;7405850;19;19915;-70
2023/06/04 01:58:26;;;;;;;1.13;0.60;;;11.90;99.90;;;;;;7406784;19;19929;-70
2023/06/04 02:01:00;;;;;;;1.15;0.60;;;11.90;99.90;;;;;;7408393;19;19953;-70
2023/06/04 02:03:32;;;;;;;0.93;0.50;;;11.80;99.90;;;;;;7406887;19;19911;-70
2023/06/04 02:06:01;;;;;;;0.82;0.68;;;11.90;99.90;;;;;;7407723;19;19930;-70
2023/06/04 02:08:30;;;;;;;1.08;0.77;;;11.90;99.90;;;;;;7409046;19;19914;-70
2023/06/04 02:10:59;;;;;;;2.33;0.90;;;12.00;99.90;;;;;;7404566;19;19933;-70
2023/06/04 02:13:28;;;;;;;1.83;0.68;;;11.90;99.90;;;;;;7405121;19;19918;-70
2023/06/04 02:15:59;;;;;;;0.75;0.52;;;12.00;99.90;;;;;;7407475;19;20279;-69
2023/06/04 02:18:28;;;;;;;0.80;0.60;;;11.90;99.90;;;;;;7408084;19;19922;-72
2023/06/04 02:21:00;;;;;;;1.40;0.70;;;11.80;99.90;;;;;;7407674;19;19981;-69
2023/06/04 02:23:29;;;;;;;0.95;0.60;;;11.60;99.90;;;;;;7406789;19;19926;-70
2023/06/04 02:25:58;;;;;;;0.90;0.47;;;11.90;99.90;;;;;;7406928;19;20254;-70
2023/06/04 02:28:27;;;;;;;0.40;0.32;;;11.70;99.90;;;;;;7407556;19;20596;-70
2023/06/04 02:30:58;;;;;;;1.90;0.52;;;11.90;99.90;;;;;;7406647;19;19923;-70
2023/06/04 02:33:27;;;;;;;1.50;0.40;;;11.70;99.90;;;;;;7407845;19;19922;-70
2023/06/04 02:35:57;;;;;;;1.05;0.80;;;11.70;99.90;;;;;;7406863;19;19978;-69
2023/06/04 02:38:25;;;;;;;1.23;0.50;;;11.70;99.90;;;;;;7408320;19;19918;-70
2023/06/04 02:40:54;;;;;;;1.33;0.50;;;11.70;99.90;;;;;;7404628;19;19956;-70
2023/06/04 02:43:23;;;;;;;0.90;0.47;;;11.60;99.90;;;;;;7404431;19;19923;-70
2023/06/04 02:45:52;;;;;;;1.13;0.50;;;11.60;99.90;;;;;;7405098;19;19923;-70
2023/06/04 02:48:24;;;;;;;1.25;0.55;;;11.70;99.90;;;;;;7405360;19;20258;-70
2023/06/04 02:50:53;;;;;;;;;;;11.50;99.90;;;;;;7409481;19;19993;-70
2023/06/04 02:53:23;;;;;;;1.08;0.57;;;11.60;99.90;;;;;;7405022;19;19932;-70
2023/06/04 02:55:53;;;;;;;0.88;0.50;;;11.60;99.90;;;;;;7406688;19;19929;-70
2023/06/04 02:58:24;;;;;;;1.23;0.50;;;11.60;99.90;;;;;;7403961;19;19921;-69
2023/06/04 03:00:55;;;;;;;1.20;0.50;;;11.40;99.90;;;;;;7406511;19;19943;-69
2023/06/04 03:03:27;;;;;;;0.90;0.50;;;11.50;99.90;;;;;;7404414;19;19989;-69
2023/06/04 03:05:56;;;;;;;0.57;0.50;;;11.60;99.90;;;;;;7406781;19;19918;-69
2023/06/04 03:08:25;;;;;;;1.48;0.50;;;11.60;99.90;;;;;;7406393;19;19931;-69
2023/06/04 03:10:54;;;;;;;1.73;0.65;;;11.80;99.90;;;;;;7406807;19;19924;-70
2023/06/04 03:13:23;;;;;;;2.08;0.70;;;11.50;99.90;;;;;;7405697;19;19919;-70
2023/06/04 03:15:52;;;;;;;0.93;0.50;;;11.40;99.90;;;;;;7406600;19;20007;-70
2023/06/04 03:18:22;;;;;;;5.78;0.80;;;11.60;99.90;;;;;;7404895;19;19922;-70
2023/06/04 03:20:54;;;;;;;1.50;0.88;;;11.60;99.90;;;;;;7405753;19;19925;-69
2023/06/04 03:23:23;;;;;;;0.93;0.60;;;11.60;99.90;;;;;;7404641;19;19926;-70
2023/06/04 03:25:52;;;;;;;0.68;0.57;;;11.50;99.90;;;;;;7407065;19;20629;-69
2023/06/04 03:28:21;;;;;;;1.55;0.68;;;11.60;99.90;;;;;;7405031;19;19918;-70
2023/06/04 03:30:50;;;;;;;1.35;0.70;;;11.70;99.90;;;;;;7406727;19;19929;-70
2023/06/04 03:33:19;;;;;;;1.38;0.60;;;11.70;99.90;;;;;;7405082;19;20337;-69
2023/06/04 03:35:48;;;;;;;1.90;0.65;;;11.50;99.90;;;;;;7405409;19;19966;-69
2023/06/04 03:38:20;;;;;;;2.67;0.93;;;11.60;99.90;;;;;;7405140;19;19970;-69
2023/06/04 03:40:49;;;;;;;1.40;0.90;;;11.40;99.90;;;;;;7404020;19;20416;-70
2023/06/04 03:43:18;;;;;;;1.30;0.80;;;11.40;99.90;;;;;;7405026;19;20410;-70
2023/06/04 03:45:47;;;;;;;2.30;0.95;;;11.30;99.90;;;;;;7402968;19;20447;-70
2023/06/04 03:48:16;;;;;;;1.35;0.85;;;11.50;99.90;;;;;;7405886;19;20262;-69
2023/06/04 03:50:45;;;;;;;1.42;0.88;;;10.30;99.90;;;;;;7406038;19;19929;-70
2023/06/04 03:53:14;;;;;;;2.03;0.80;;;11.40;99.90;;;;;;7406708;19;19998;-71
2023/06/04 03:55:47;;;;;;;2.20;0.85;;;11.40;99.90;;;;;;7403601;19;19918;-70
2023/06/04 03:58:16;;;;;;;1.13;0.80;;;11.40;99.90;;;;;;7404443;19;19943;-71
2023/06/04 04:00:45;;;;;;;2.47;0.90;;;11.30;99.90;;;;;;7403758;19;19932;-70
2023/06/04 04:03:14;;;;;;;3.20;0.90;;;11.40;99.90;;;;;;7405393;19;19919;-70
2023/06/04 04:05:43;;;;;;;1.52;0.80;;;11.40;99.90;;;;;;7403316;19;19931;-70
2023/06/04 04:08:12;;;;;;;1.30;0.80;;;11.50;99.90;;;;;;7404264;19;19924;-70
2023/06/04 04:10:41;;;;;;;3.53;1.00;;;12.10;99.90;;;;;;7406060;19;19986;-69
2023/06/04 04:13:12;;;;;;;1.83;0.77;;;11.50;99.90;;;;;;7402036;19;19925;-70
2023/06/04 04:15:41;;;;;;;1.67;0.60;;;11.60;99.90;;;;;;7403078;19;19914;-70
2023/06/04 04:18:10;;;;;;;3.08;1.15;;;11.60;99.90;;;;;;7404744;19;19926;-70
2023/06/04 04:20:39;;;;;;;1.27;0.95;;;11.70;99.90;;;;;;7402764;19;20300;-69
2023/06/04 04:23:08;;;;;;;2.15;0.75;;;11.70;99.90;;;;;;7404535;19;19926;-70
2023/06/04 04:25:37;;;;;;;1.27;0.98;;;11.80;99.90;;;;;;7402720;19;19923;-69
2023/06/04 04:28:07;;;;;;;1.42;0.68;;;11.60;99.90;;;;;;7403811;19;20376;-70
2023/06/04 04:30:40;;;;;;;2.60;1.00;;;11.70;99.90;;;;;;7403025;19;20064;-70
2023/06/04 04:33:10;;;;;;;1.40;0.70;;;13.20;99.90;;;;;;7406459;19;19924;-69
2023/06/04 04:35:39;;;;;;;2.85;1.00;;;11.80;99.90;;;;;;7409738;19;19922;-70
2023/06/04 04:38:10;;;;;;;1.52;0.80;;;11.60;99.90;;;;;;7411306;19;19921;-69
2023/06/04 04:40:39;;;;;;;1.48;0.88;;;11.80;99.90;;;;;;7409532;19;19915;-70
2023/06/04 04:43:08;;;;;;;3.10;1.23;;;11.60;99.90;;;;;;7409872;19;20246;-70
2023/06/04 04:45:40;;;;;;;1.25;0.80;;;11.60;99.90;;;;;;7406578;19;19939;-70
2023/06/04 04:48:09;;;;;;;1.08;0.70;;;11.60;99.90;;;;;;7407866;19;19918;-71
2023/06/04 04:50:38;;;;;;;1.85;0.80;;;11.80;99.90;;;;;;7407645;19;19927;-69
2023/06/04 04:53:07;;;;;;;1.50;0.90;;;11.70;99.90;;;;;;7408286;19;20313;-69
2023/06/04 04:55:35;;;;;;;1.63;0.90;;;11.90;99.90;;;;;;7409677;19;19994;-69
2023/06/04 04:58:05;;;;;;;1.73;0.80;;;11.80;99.90;;;;;;7406884;19;19992;-69
2023/06/04 05:00:34;;;;;;;2.08;0.82;;;11.80;99.90;;;;;;7409412;19;20294;-70
2023/06/04 05:03:06;;;;;;;3.13;0.82;;;12.10;99.90;;;;;;7408107;19;19922;-69
2023/06/04 05:05:35;;;;;;;0.80;0.60;;;11.90;99.90;;;;;;7406979;19;19923;-69
2023/06/04 05:08:04;;;;;;;1.92;0.80;;;11.80;99.90;;;;;;7408334;19;19947;-69
2023/06/04 05:10:35;;;;;;;1.30;0.80;;;11.80;99.90;;;;;;7409819;19;19931;-70
2023/06/04 05:13:06;;;;;;;1.02;0.85;;;12.00;99.90;;;;;;7409414;19;19972;-70
2023/06/04 05:15:35;;;;;;;1.45;0.82;;;11.90;99.90;;;;;;7409464;19;19978;-70
2023/06/04 05:18:07;;;;;;;1.52;0.80;;;12.00;99.90;;;;;;7410149;19;20365;-70
2023/06/04 05:20:37;;;;;;;2.05;1.05;;;12.00;99.90;;;;;;7409603;19;19923;-70
2023/06/04 05:23:07;;;;;;;1.40;0.93;;;12.10;99.90;;;;;;7409604;19;19915;-69
2023/06/04 05:25:36;;;;;;;2.17;0.90;;;12.10;99.90;;;;;;7405640;19;19940;-70
2023/06/04 05:28:06;;;;;;;1.77;1.00;;;12.10;99.90;;;;;;7408074;19;19957;-70
2023/06/04 05:30:41;;;;;;;1.15;0.57;;;12.10;99.90;;;;;;7409811;19;19926;-70
2023/06/04 05:33:17;;;;;;;1.50;0.70;;;12.40;99.90;;;;;;7408112;19;19919;-70
2023/06/04 05:35:46;;;;;;;0.90;0.60;;;12.30;99.90;;;;;;7406540;19;19919;-70
2023/06/04 05:38:17;;;;;;;1.75;0.80;;;12.30;99.90;;;;;;7408741;19;19919;-70
2023/06/04 05:40:46;;;;;;;1.65;0.60;;;12.30;99.90;;;;;;7408352;19;19921;-71
2023/06/04 05:43:15;;;;;;;2.53;0.90;;;12.30;99.90;;;;;;7405784;19;19926;-70
2023/06/04 05:45:45;;;;;;;2.47;0.75;;;12.50;99.90;;;;;;7403629;19;19918;-70
2023/06/04 05:48:16;;;;;;;0.98;0.60;;;12.40;99.90;;;;;;7408130;19;19922;-70
2023/06/04 05:50:47;;;;;;;1.63;0.50;;;12.50;99.90;;;;;;7406169;19;19918;-70
2023/06/04 05:53:16;;;;;;;1.38;0.80;;;12.70;99.90;;;;;;7406239;19;19949;-70
2023/06/04 05:55:45;;;;;;;1.20;0.60;;;12.90;99.90;;;;;;7406431;19;19918;-70
2023/06/04 05:58:15;;;;;;;1.00;0.60;;;12.90;99.90;;;;;;7407565;19;20351;-70
2023/06/04 06:00:44;;;;;;;2.67;0.60;;;12.90;99.90;;;;;;7407729;19;19977;-70
2023/06/04 06:03:16;;;;;;;1.42;0.47;;;13.00;99.90;;;;;;7408501;19;20390;-70
2023/06/04 06:05:45;;;;;;;1.15;0.50;;;13.00;99.90;;;;;;7404023;19;19923;-70
2023/06/04 06:08:14;;;;;;;0.95;0.50;;;13.10;99.90;;;;;;7407977;19;19915;-70
2023/06/04 06:10:43;;;;;;;2.13;0.60;;;13.30;99.90;;;;;;7407039;19;19914;-70
2023/06/04 06:13:12;;;;;;;1.23;0.50;;;13.40;99.90;;;;;;7405771;19;19970;-70
2023/06/04 06:15:41;;;;;;;1.38;0.50;;;13.50;99.90;;;;;;7406175;19;19922;-70
2023/06/04 06:18:10;;;;;;;1.85;0.40;;;13.40;99.90;;;;;;7407694;19;19935;-70
2023/06/04 06:20:42;;;;;;;1.83;0.50;;;13.30;99.90;;;;;;7407920;19;19974;-70
2023/06/04 06:23:11;;;;;;;0.75;0.57;;;13.50;99.90;;;;;;7407764;19;20349;-70
2023/06/04 06:25:45;;;;;;;1.38;0.50;;;13.40;99.90;;;;;;7405280;19;19922;-70
2023/06/04 06:28:15;;;;;;;1.45;0.50;;;13.40;99.90;;;;;;7407663;19;19929;-70
2023/06/04 06:30:44;;;;;;;1.55;0.40;;;13.40;99.90;;;;;;7406465;19;19990;-70
2023/06/04 06:33:13;;;;;;;1.52;0.40;;;13.50;99.90;;;;;;7408259;19;19918;-70
2023/06/04 06:35:46;;;;;;;1.17;0.40;;;13.40;99.90;;;;;;7406642;19;19932;-70
2023/06/04 06:38:15;;;;;;;1.80;0.50;;;13.40;99.90;;;;;;7404940;19;19939;-71
2023/06/04 06:40:44;;;;;;;1.30;0.50;;;13.40;99.90;;;;;;7407393;19;20254;-70
2023/06/04 06:43:13;;;;;;;1.17;0.55;;;13.50;99.90;;;;;;7405499;19;20293;-70
2023/06/04 06:45:42;;;;;;;1.75;0.50;;;13.40;99.90;;;;;;7404726;19;19918;-71
2023/06/04 06:48:11;;;;;;;1.67;0.80;;;13.60;99.90;;;;;;7404635;19;19939;-70
2023/06/04 06:50:40;;;;;;;2.17;0.60;;;13.80;99.90;;;;;;7406030;19;20281;-71
2023/06/04 06:53:11;;;;;;;1.02;0.73;;;13.80;99.90;;;;;;7404842;19;19918;-71
2023/06/04 06:55:41;;;;;;;1.13;0.68;;;13.60;99.90;;;;;;7404415;19;19990;-70
2023/06/04 06:58:09;;;;;;;1.58;0.55;;;13.80;99.90;;;;;;7404167;19;19942;-70
2023/06/04 07:00:39;;;;;;;1.23;0.40;;;13.70;99.90;;;;;;7406485;19;19918;-70
2023/06/04 07:03:08;;;;;;;2.05;0.50;;;13.80;99.90;;;;;;7404801;19;19922;-70
2023/06/04 07:05:37;;;;;;;0.50;0.45;;;13.90;99.90;;;;;;7405445;19;19956;-70
2023/06/04 07:08:06;;;;;;;1.65;0.60;;;14.00;99.90;;;;;;7405283;19;19986;-70
2023/06/04 07:10:38;;;;;;;1.65;0.70;;;13.90;99.90;;;;;;7406118;19;19919;-70
2023/06/04 07:13:07;;;;;;;1.05;0.35;;;14.00;99.90;;;;;;7405028;19;20061;-70
2023/06/04 07:15:35;;;;;;;1.45;0.45;;;13.90;99.90;;;;;;7406052;19;19915;-70
2023/06/04 07:18:05;;;;;;;2.63;0.90;;;13.90;99.90;;;;;;7404994;19;19987;-70
2023/06/04 07:20:34;;;;;;;0.60;0.30;;;13.90;99.90;;;;;;7405730;19;20283;-70
2023/06/04 07:23:03;;;;;;;1.60;0.40;;;14.10;99.90;;;;;;7405208;19;19956;-72
2023/06/04 07:25:32;;;;;;;0.77;0.30;;;14.10;99.90;;;;;;7405809;19;19991;-70
2023/06/04 07:28:03;;;;;;;0.85;0.40;;;14.10;99.90;;;;;;7404677;19;20307;-70
2023/06/04 07:30:33;;;;;;;1.25;0.40;;;14.20;99.90;;;;;;7406203;19;19962;-70
2023/06/04 07:33:02;;;;;;;0.75;0.28;;;14.20;99.90;;;;;;7404439;19;19922;-70
2023/06/04 07:35:31;;;;;;;1.48;0.30;;;14.20;99.90;;;;;;7406617;19;19915;-72
2023/06/04 07:38:01;;;;;;;1.52;0.47;;;14.30;99.90;;;;;;7404993;19;19929;-70
2023/06/04 07:40:30;;;;;;;0.82;0.45;;;14.40;99.90;;;;;;7406669;19;20449;-70
2023/06/04 07:42:59;;;;;;;1.40;0.40;;;14.30;99.90;;;;;;7403380;19;19974;-70
2023/06/04 07:45:31;;;;;;;2.53;0.40;;;14.50;99.90;;;;;;7405087;19;19981;-70
2023/06/04 07:48:00;;;;;;;1.30;0.30;;;14.50;99.90;;;;;;7405356;19;20337;-70
2023/06/04 07:50:29;;;;;;;0.50;0.30;;;14.80;99.90;;;;;;7404857;19;20273;-70
2023/06/04 07:52:58;;;;;;;1.20;0.40;;;14.60;99.90;;;;;;7404524;19;19939;-70
2023/06/04 07:55:27;;;;;;;1.83;0.38;;;14.50;99.90;;;;;;7403000;19;19925;-70
2023/06/04 07:57:56;;;;;;;0.70;0.50;;;14.70;99.90;;;;;;7403373;19;19935;-70
2023/06/04 08:00:25;;;;;;;0.85;0.20;;;14.70;99.90;;;;;;7402890;19;19921;-70
2023/06/04 08:02:58;;;;;;;0.82;0.40;;;14.80;99.90;;;;;;7404817;19;19927;-69
2023/06/04 08:05:27;;;;;;;1.60;0.35;;;15.00;99.90;;;;;;7401397;19;19931;-70
2023/06/04 08:07:56;;;;;;;2.15;0.55;;;14.90;99.90;;;;;;7403226;19;19922;-70
2023/06/04 08:10:25;;;;;;;1.67;0.52;;;15.10;99.90;;;;;;7402508;19;20268;-70
2023/06/04 08:12:53;;;;;;;1.58;0.40;;;14.80;99.90;;;;;;7401885;19;20344;-70
2023/06/04 08:15:23;;;;;;;1.10;0.63;;;15.00;99.90;;;;;;7402700;19;19943;-69
2023/06/04 08:17:52;;;;;;;0.93;0.40;;;15.10;99.90;;;;;;7403841;19;19925;-69
2023/06/04 08:20:23;;;;;;;0.98;0.50;;;15.10;99.90;;;;;;7402116;19;19994;-70
2023/06/04 08:22:52;;;;;;;;;;;15.20;99.90;;;;;;7406654;19;19928;-69
2023/06/04 08:25:21;;;;;;;0.60;0.35;;;15.20;99.90;;;;;;7404661;19;19921;-69
2023/06/04 08:27:50;;;;;;;0.90;0.40;;;15.20;99.90;;;;;;7405099;19;19990;-70
2023/06/04 08:30:19;;;;;;;0.70;0.30;;;15.50;99.90;;;;;;7403500;19;19915;-69
2023/06/04 08:32:48;;;;;;;0.80;0.40;;;15.30;99.90;;;;;;7404935;19;19918;-73
2023/06/04 08:35:17;;;;;;;0.55;0.40;;;15.50;99.90;;;;;;7402911;19;20251;-70
2023/06/04 08:37:49;;;;;;;1.65;0.35;;;15.30;99.90;;;;;;7403782;19;19918;-69
2023/06/04 08:40:18;;;;;;;;;;;15.60;99.90;;;;;;7406373;19;20194;-72
2023/06/04 08:42:47;;;;;;;1.40;0.32;;;15.70;99.90;;;;;;7402864;19;19933;-71
2023/06/04 08:45:17;;;;;;;1.13;0.40;;;15.70;99.90;;;;;;7401814;19;20345;-70
2023/06/04 08:47:51;;;;;;;0.88;0.40;;;15.70;99.90;;;;;;7404179;19;19918;-69
2023/06/04 08:50:26;;;;;;;1.08;0.40;;;15.80;99.90;;;;;;7402367;19;19970;-71
2023/06/04 08:52:59;;;;;;;1.02;0.40;;;15.70;99.90;;;;;;7401368;19;19914;-69
2023/06/04 08:55:28;;;;;;;0.30;0.20;;;15.90;99.90;;;;;;7402758;19;19933;-70
2023/06/04 08:57:57;;;;;;;0.57;0.20;;;16.00;99.90;;;;;;7400429;19;19978;-70
2023/06/04 09:00:26;;;;;;;0.30;0.30;;;16.10;99.90;;;;;;7402385;19;20373;-70
2023/06/04 09:02:56;;;;;;;0.30;0.30;;;16.00;99.90;;;;;;7400726;19;19918;-70
2023/06/04 09:05:25;;;;;;;0.80;0.30;;;16.10;99.90;;;;;;7401718;19;19919;-70
2023/06/04 09:08:02;;;;;;;0.57;0.30;;;16.20;99.90;;;;;;7400562;19;19915;-70
2023/06/04 09:10:32;;;;;;;0.60;0.32;;;16.30;99.90;;;;;;7403043;19;19918;-70
2023/06/04 09:13:05;;;;;;;0.73;0.20;;;16.20;99.90;;;;;;7401185;19;20453;-70
2023/06/04 09:15:34;;;;;;;0.82;0.40;;;16.40;99.90;;;;;;7402821;19;19926;-70
2023/06/04 09:18:03;;;;;;;0.68;0.30;;;16.40;99.90;;;;;;7401562;19;19911;-69
2023/06/04 09:20:32;;;;;;;0.70;0.32;;;16.50;99.90;;;;;;7408097;19;19924;-70
2023/06/04 09:23:04;;;;;;;0.63;0.20;;;16.60;99.90;;;;;;7409883;19;19925;-70
2023/06/04 09:25:33;;;;;;;0.17;0.17;;;16.50;99.90;;;;;;7408732;19;20268;-70
2023/06/04 09:28:09;;;;;;;0.57;0.28;;;16.60;99.90;;;;;;7408388;19;19922;-69
2023/06/04 09:30:38;;;;;;;0.40;0.25;;;16.80;99.90;;;;;;7406793;19;20010;-70
2023/06/04 09:33:12;;;;;;;0.30;0.30;;;16.80;99.90;;;;;;7408813;19;19919;-70
2023/06/04 09:35:40;;;;;;;0.55;0.30;;;16.80;99.90;;;;;;7406911;19;19914;-70
2023/06/04 09:38:12;;;;;;;1.55;0.40;;;16.90;99.90;;;;;;7408251;19;19943;-69
2023/06/04 09:40:41;;;;;;;1.58;0.38;;;17.10;99.90;;;;;;7408460;19;19974;-70
2023/06/04 09:43:13;;;;;;;1.27;0.40;;;17.30;99.90;;;;;;7406076;19;19919;-70
2023/06/04 09:45:41;;;;;;;0.80;0.25;;;17.30;99.90;;;;;;7406228;19;19923;-70
2023/06/04 09:48:10;;;;;;;0.60;0.30;;;17.30;99.90;;;;;;7408016;19;19922;-70
2023/06/04 09:50:41;;;;;;;0.47;0.30;;;17.50;99.90;;;;;;7406530;19;19915;-70
2023/06/04 09:53:22;;;;;;;0.52;0.20;;;17.50;99.90;;;;;;7407680;19;19929;-70
2023/06/04 09:56:00;;;;;;;1.95;0.50;;;17.80;99.90;;;;;;7406767;19;19915;-70
2023/06/04 09:58:30;;;;;;;0.60;0.30;;;17.80;99.90;;;;;;7407487;19;19966;-70
2023/06/04 10:01:00;;;;;;;0.80;0.40;;;17.90;99.90;;;;;;7407114;19;19925;-70
2023/06/04 10:03:33;;;;;;;0.60;0.30;;;18.10;99.90;;;;;;7405948;19;19946;-69
2023/06/04 10:06:04;;;;;;;1.75;0.40;;;18.10;99.90;;;;;;7405835;19;19919;-70
2023/06/04 10:08:36;;;;;;;0.40;0.30;;;18.20;99.90;;;;;;7407397;19;19910;-70
2023/06/04 10:11:07;;;;;;;1.45;0.38;;;18.30;99.90;;;;;;7407001;19;20536;-70
2023/06/04 10:13:43;;;;;;;0.20;0.20;;;18.40;99.90;;;;;;7406974;19;20333;-70
2023/06/04 10:16:15;;;;;;;1.23;0.30;;;18.40;99.90;;;;;;7407752;19;19929;-70
2023/06/04 10:18:45;;;;;;;0.38;0.28;;;17.30;99.90;;;;;;7406073;19;20218;-69
2023/06/04 10:21:16;;;;;;;0.93;0.50;;;18.50;99.90;;;;;;7407176;19;19926;-69
2023/06/04 10:23:49;;;;;;;0.28;0.20;;;18.40;99.90;;;;;;7406536;19;20295;-71
2023/06/04 10:26:19;;;;;;;0.45;0.28;;;18.50;99.90;;;;;;7406726;19;19937;-70
2023/06/04 10:28:48;;;;;;;0.98;0.40;;;18.60;99.90;;;;;;7405937;19;19978;-70
2023/06/04 10:31:18;;;;;;;0.80;0.30;;;18.60;99.90;;;;;;7405279;19;19951;-70
2023/06/04 10:33:47;;;;;;;1.20;0.32;;;18.90;99.90;;;;;;7406541;19;19923;-70
2023/06/04 10:36:21;;;;;;;0.40;0.30;;;18.90;99.90;;;;;;7407802;19;19970;-70
2023/06/04 10:38:54;;;;;;;0.60;0.50;;;18.90;99.90;;;;;;7407193;19;19914;-70
2023/06/04 10:41:24;;;;;;;0.73;0.32;;;19.00;99.90;;;;;;7408071;19;19915;-70
2023/06/04 10:44:02;;;;;;;0.57;0.30;;;19.00;99.90;;;;;;7405037;19;19925;-70
2023/06/04 10:46:42;;;;;;;1.70;0.60;;;19.20;99.90;;;;;;7404133;19;20479;-69
2023/06/04 10:49:14;;;;;;;0.40;0.20;;;19.20;99.90;;;;;;7406810;19;19947;-70
2023/06/04 10:51:43;;;;;;;0.17;0.17;;;19.40;99.90;;;;;;7405258;19;19922;-70
2023/06/04 10:54:25;;;;;;;0.43;0.30;;;19.40;99.90;;;;;;7407422;19;19990;-70
2023/06/04 10:56:58;;;;;;;0.30;0.30;;;19.60;99.90;;;;;;7403321;19;20379;-70
2023/06/04 10:59:26;;;;;;;0.55;0.40;;;19.50;99.90;;;;;;7403001;19;20033;-70
2023/06/04 11:02:07;;;;;;;0.70;0.30;;;19.60;99.90;;;;;;7406255;19;19978;-70
2023/06/04 11:04:40;;;;;;;0.65;0.30;;;19.70;99.90;;;;;;7405189;19;19932;-70
2023/06/04 11:07:10;;;;;;;0.43;0.20;;;19.90;99.90;;;;;;7404845;19;20647;-69
2023/06/04 11:09:51;;;;;;;0.93;0.40;;;19.90;99.90;;;;;;7404478;19;19934;-70
2023/06/04 11:12:20;;;;;;;1.77;0.35;;;20.10;99.90;;;;;;7406348;19;19913;-70
2023/06/04 11:14:58;;;;;;;1.25;0.40;;;20.30;99.90;;;;;;7405717;19;20023;-70
2023/06/04 11:17:27;;;;;;;0.82;0.30;;;20.30;99.90;;;;;;7404022;19;19919;-70
2023/06/04 11:19:56;;;;;;;0.20;0.20;;;20.30;99.90;;;;;;7405649;19;19929;-70
2023/06/04 11:22:25;;;;;;;1.00;0.43;;;20.50;99.90;;;;;;7404956;19;19918;-70
2023/06/04 11:25:02;;;;;;;0.63;0.22;;;20.50;99.90;;;;;;7405691;19;19973;-70
2023/06/04 11:27:35;;;;;;;0.40;0.28;;;20.60;99.90;;;;;;7402617;19;19922;-70
2023/06/04 11:30:05;;;;;;;1.02;0.25;;;20.70;99.90;;;;;;7405361;19;19918;-70
2023/06/04 11:32:34;;;;;;;0.35;0.20;;;20.70;99.90;;;;;;7404233;19;20320;-70
2023/06/04 11:35:07;;;;;;;0.30;0.25;;;20.80;99.90;;;;;;7405593;19;19935;-70
2023/06/04 11:37:37;;;;;;;0.28;0.28;;;21.00;99.90;;;;;;7404265;19;19918;-70
2023/06/04 11:40:18;;;;;;;0.40;0.32;;;21.00;99.90;;;;;;7405414;19;19929;-70
2023/06/04 11:42:48;;;;;;;0.40;0.30;;;21.10;99.90;;;;;;7400966;19;19915;-71
2023/06/04 11:45:19;;;;;;;0.95;0.30;;;21.00;99.90;;;;;;7405892;19;20276;-70
2023/06/04 11:47:49;;;;;;;0.65;0.40;;;21.20;99.90;;;;;;7402932;19;19915;-71
2023/06/04 11:50:18;;;;;;;0.88;0.55;;;21.40;99.90;;;;;;7403543;19;20008;-70
2023/06/04 11:52:47;;;;;;;0.90;0.25;;;21.30;99.90;;;;;;7405540;19;20314;-70
2023/06/04 11:55:20;;;;;;;0.40;0.28;;;21.30;99.90;;;;;;7403014;19;20293;-70
2023/06/04 11:57:50;;;;;;;0.95;0.32;;;21.20;99.90;;;;;;7404095;19;19918;-70
2023/06/04 12:00:20;;;;;;;0.40;0.32;;;21.20;99.90;;;;;;7402690;19;20352;-71
2023/06/04 12:02:54;;;;;;;0.43;0.35;;;21.60;99.90;;;;;;7404264;19;19914;-71
2023/06/04 12:05:26;;;;;;;0.50;0.30;;;21.50;99.90;;;;;;7402663;19;19918;-70
2023/06/04 12:08:06;;;;;;;0.57;0.30;;;21.70;99.90;;;;;;7403125;19;20355;-70
2023/06/04 12:10:42;;;;;;;0.60;0.35;;;21.90;99.90;;;;;;7403609;19;19919;-72
2023/06/04 12:13:12;;;;;;;1.20;0.30;;;22.00;99.90;;;;;;7403754;19;19925;-70
2023/06/04 12:15:41;;;;;;;0.93;0.38;;;22.00;99.90;;;;;;7403483;19;19918;-70
2023/06/04 12:18:10;;;;;;;1.17;0.40;;;22.10;99.90;;;;;;7405289;19;19935;-70
2023/06/04 12:20:41;;;;;;;0.50;0.40;;;22.10;99.90;;;;;;7404423;19;19927;-70
2023/06/04 12:23:10;;;;;;;1.38;0.30;;;22.20;99.90;;;;;;7404417;19;19915;-70
2023/06/04 12:25:43;;;;;;;0.43;0.30;;;22.50;99.90;;;;;;7403477;19;20317;-70
2023/06/04 12:28:20;;;;;;;0.40;0.40;;;22.50;99.90;;;;;;7400454;19;20362;-70
2023/06/04 12:30:49;;;;;;;0.43;0.30;;;22.60;99.90;;;;;;7404084;19;19982;-70
2023/06/04 12:33:18;;;;;;;0.63;0.35;;;22.70;99.90;;;;;;7401674;19;19914;-70
2023/06/04 12:35:47;;;;;;;0.60;0.30;;;22.70;99.90;;;;;;7402022;19;19978;-71
2023/06/04 12:38:16;;;;;;;0.30;0.20;;;22.80;99.90;;;;;;7400929;19;19919;-71
2023/06/04 12:40:48;;;;;;;0.60;0.30;;;22.90;99.90;;;;;;7403387;19;19951;-70
2023/06/04 12:43:17;;;;;;;2.15;0.50;;;22.80;99.80;;;;;;7402167;19;19943;-71
2023/06/04 12:45:47;;;;;;;0.30;0.30;;;22.90;99.90;;;;;;7403069;19;19953;-70
2023/06/04 12:48:16;;;;;;;1.20;0.52;;;22.70;99.90;;;;;;7401287;19;19943;-71
2023/06/04 12:50:45;;;;;;;2.20;0.30;;;22.90;99.90;;;;;;7404244;19;19990;-70
2023/06/04 12:53:14;;;;;;;0.50;0.30;;;23.00;99.90;;;;;;7402244;19;19919;-70
2023/06/04 12:55:43;;;;;;;0.45;0.30;;;23.20;99.70;;;;;;7409319;19;19939;-70
2023/06/04 12:58:15;;;;;;;0.60;0.30;;;23.20;99.60;;;;;;7407347;19;19919;-70
2023/06/04 13:00:44;;;;;;;0.60;0.30;;;23.30;99.70;;;;;;7410171;19;19915;-70
2023/06/04 13:03:13;;;;;;;0.57;0.30;;;23.40;99.60;;;;;;7408798;19;19925;-70